Terminal Aerodrome Forecast
Issued by NWS

Home | Current Version | Previous Version | Text Only | Print | Product List | Glossary On
Versions: 1 2 3 4 5 6 7 8 9 10 11 12 13
000
FTUS45 KABQ 221100
TAFROW
TAF
KROW 221133Z 2212/2312 19010KT P6SM BKN140
     FM221800 19011KT P6SM SCT070 BKN100
     FM222000 20011G19KT P6SM VCTS SCT060CB BKN100
     FM222300 25010KT P6SM VCSH BKN080 BKN120
     FM230200 26006KT P6SM BKN080=

USA.gov is the U.S. government's official web portal to all federal, state and local government web resources and services.